sensor_id;sensor_type;location;lat;lon;timestamp;temperature;humidity
43679;DHT22;29279;50.858;4.392;2023-03-30T00:00:00;16.40;99.90
43679;DHT22;29279;50.858;4.392;2023-03-30T00:02:27;16.40;99.90
43679;DHT22;29279;50.858;4.392;2023-03-30T00:04:56;16.40;99.90
43679;DHT22;29279;50.858;4.392;2023-03-30T00:07:28;16.30;99.90
43679;DHT22;29279;50.858;4.392;2023-03-30T00:09:57;16.30;99.90
43679;DHT22;29279;50.858;4.392;2023-03-30T00:12:23;16.20;99.90
43679;DHT22;29279;50.858;4.392;2023-03-30T00:14:49;16.20;99.90
43679;DHT22;29279;50.858;4.392;2023-03-30T00:17:15;16.30;99.90
43679;DHT22;29279;50.858;4.392;2023-03-30T00:19:41;16.30;99.90
43679;DHT22;29279;50.858;4.392;2023-03-30T00:22:08;16.20;99.90
43679;DHT22;29279;50.858;4.392;2023-03-30T00:24:35;16.30;99.90
43679;DHT22;29279;50.858;4.392;2023-03-30T00:27:01;16.30;99.90
43679;DHT22;29279;50.858;4.392;2023-03-30T00:29:27;16.30;99.90
43679;DHT22;29279;50.858;4.392;2023-03-30T00:31:53;16.20;99.90
43679;DHT22;29279;50.858;4.392;2023-03-30T00:34:19;16.20;99.90
43679;DHT22;29279;50.858;4.392;2023-03-30T00:36:45;16.10;99.90
43679;DHT22;29279;50.858;4.392;2023-03-30T00:39:12;16.00;99.90
43679;DHT22;29279;50.858;4.392;2023-03-30T00:41:38;16.00;99.90
43679;DHT22;29279;50.858;4.392;2023-03-30T00:47:11;16.00;99.90
43679;DHT22;29279;50.858;4.392;2023-03-30T00:49:37;16.00;99.90
43679;DHT22;29279;50.858;4.392;2023-03-30T00:52:04;15.90;99.90
43679;DHT22;29279;50.858;4.392;2023-03-30T00:54:29;16.00;99.90
43679;DHT22;29279;50.858;4.392;2023-03-30T00:56:55;15.90;99.90
43679;DHT22;29279;50.858;4.392;2023-03-30T00:59:21;15.90;99.90
43679;DHT22;29279;50.858;4.392;2023-03-30T01:01:47;15.70;99.90
43679;DHT22;29279;50.858;4.392;2023-03-30T01:04:15;15.80;99.90
43679;DHT22;29279;50.858;4.392;2023-03-30T01:06:42;15.70;99.90
43679;DHT22;29279;50.858;4.392;2023-03-30T01:09:13;15.70;99.90
43679;DHT22;29279;50.858;4.392;2023-03-30T01:11:41;15.70;99.90
43679;DHT22;29279;50.858;4.392;2023-03-30T01:14:09;15.70;99.90
43679;DHT22;29279;50.858;4.392;2023-03-30T01:16:53;15.70;99.90
43679;DHT22;29279;50.858;4.392;2023-03-30T01:37:13;15.60;99.90
43679;DHT22;29279;50.858;4.392;2023-03-30T01:39:54;15.60;99.90
43679;DHT22;29279;50.858;4.392;2023-03-30T01:42:37;15.60;99.90
43679;DHT22;29279;50.858;4.392;2023-03-30T01:45:13;15.50;99.90
43679;DHT22;29279;50.858;4.392;2023-03-30T01:50:45;15.50;99.90
43679;DHT22;29279;50.858;4.392;2023-03-30T01:56:12;15.50;99.90
43679;DHT22;29279;50.858;4.392;2023-03-30T01:58:53;15.50;99.90
43679;DHT22;29279;50.858;4.392;2023-03-30T02:01:22;15.50;99.90
43679;DHT22;29279;50.858;4.392;2023-03-30T02:03:52;15.40;99.90
43679;DHT22;29279;50.858;4.392;2023-03-30T02:06:29;15.40;99.90
43679;DHT22;29279;50.858;4.392;2023-03-30T02:09:03;15.40;99.90
43679;DHT22;29279;50.858;4.392;2023-03-30T02:11:30;15.40;99.90
43679;DHT22;29279;50.858;4.392;2023-03-30T02:13:58;15.50;99.90
43679;DHT22;29279;50.858;4.392;2023-03-30T02:16:34;15.50;99.90
43679;DHT22;29279;50.858;4.392;2023-03-30T02:19:02;15.60;99.90
43679;DHT22;29279;50.858;4.392;2023-03-30T02:21:31;15.70;99.90
43679;DHT22;29279;50.858;4.392;2023-03-30T02:23:58;15.70;99.90
43679;DHT22;29279;50.858;4.392;2023-03-30T02:26:25;15.70;99.90
43679;DHT22;29279;50.858;4.392;2023-03-30T02:28:52;15.70;99.90
43679;DHT22;29279;50.858;4.392;2023-03-30T02:31:18;15.70;99.90
43679;DHT22;29279;50.858;4.392;2023-03-30T02:39:32;15.50;99.90
43679;DHT22;29279;50.858;4.392;2023-03-30T02:55:53;15.40;99.90
43679;DHT22;29279;50.858;4.392;2023-03-30T02:58:35;15.40;99.90
43679;DHT22;29279;50.858;4.392;2023-03-30T03:01:10;15.30;99.90
43679;DHT22;29279;50.858;4.392;2023-03-30T03:03:44;15.30;99.90
43679;DHT22;29279;50.858;4.392;2023-03-30T03:06:12;15.30;99.90
43679;DHT22;29279;50.858;4.392;2023-03-30T03:08:41;15.30;99.90
43679;DHT22;29279;50.858;4.392;2023-03-30T03:11:08;15.30;99.90
43679;DHT22;29279;50.858;4.392;2023-03-30T03:13:35;15.20;99.90
43679;DHT22;29279;50.858;4.392;2023-03-30T03:16:03;15.20;99.90
43679;DHT22;29279;50.858;4.392;2023-03-30T03:18:29;15.30;99.90
43679;DHT22;29279;50.858;4.392;2023-03-30T03:20:56;15.30;99.90
43679;DHT22;29279;50.858;4.392;2023-03-30T03:23:22;15.30;99.90
43679;DHT22;29279;50.858;4.392;2023-03-30T03:25:48;15.30;99.90
43679;DHT22;29279;50.858;4.392;2023-03-30T03:28:13;15.30;99.90
43679;DHT22;29279;50.858;4.392;2023-03-30T03:30:39;15.30;99.90
43679;DHT22;29279;50.858;4.392;2023-03-30T03:33:08;15.30;99.90
43679;DHT22;29279;50.858;4.392;2023-03-30T03:35:34;15.30;99.90
43679;DHT22;29279;50.858;4.392;2023-03-30T03:38:04;15.20;99.90
43679;DHT22;29279;50.858;4.392;2023-03-30T03:40:31;15.10;99.90
43679;DHT22;29279;50.858;4.392;2023-03-30T03:42:56;15.00;99.90
43679;DHT22;29279;50.858;4.392;2023-03-30T03:45:22;15.00;99.90
43679;DHT22;29279;50.858;4.392;2023-03-30T03:47:51;15.00;99.90
43679;DHT22;29279;50.858;4.392;2023-03-30T03:50:17;15.10;99.90
43679;DHT22;29279;50.858;4.392;2023-03-30T03:52:43;15.10;99.90
43679;DHT22;29279;50.858;4.392;2023-03-30T03:55:09;15.30;99.90
43679;DHT22;29279;50.858;4.392;2023-03-30T03:57:35;15.30;99.90
43679;DHT22;29279;50.858;4.392;2023-03-30T04:00:05;15.40;99.90
43679;DHT22;29279;50.858;4.392;2023-03-30T04:02:40;15.30;99.90
43679;DHT22;29279;50.858;4.392;2023-03-30T04:05:06;15.40;99.90
43679;DHT22;29279;50.858;4.392;2023-03-30T04:07:33;15.30;99.90
43679;DHT22;29279;50.858;4.392;2023-03-30T04:10:00;15.30;99.90
43679;DHT22;29279;50.858;4.392;2023-03-30T04:12:28;15.30;99.90
43679;DHT22;29279;50.858;4.392;2023-03-30T04:14:54;15.30;99.90
43679;DHT22;29279;50.858;4.392;2023-03-30T04:17:20;15.20;99.90
43679;DHT22;29279;50.858;4.392;2023-03-30T04:19:49;15.20;99.90
43679;DHT22;29279;50.858;4.392;2023-03-30T04:22:18;15.20;99.90
43679;DHT22;29279;50.858;4.392;2023-03-30T04:24:44;15.10;99.90
43679;DHT22;29279;50.858;4.392;2023-03-30T04:27:10;15.00;99.90
43679;DHT22;29279;50.858;4.392;2023-03-30T04:29:41;15.00;99.90
43679;DHT22;29279;50.858;4.392;2023-03-30T04:32:09;15.00;99.90
43679;DHT22;29279;50.858;4.392;2023-03-30T04:34:40;15.00;99.90
43679;DHT22;29279;50.858;4.392;2023-03-30T04:37:10;15.00;99.90
43679;DHT22;29279;50.858;4.392;2023-03-30T04:39:36;14.90;99.90
43679;DHT22;29279;50.858;4.392;2023-03-30T04:42:02;14.90;99.90
43679;DHT22;29279;50.858;4.392;2023-03-30T04:44:29;14.80;99.90
43679;DHT22;29279;50.858;4.392;2023-03-30T04:46:55;14.70;99.90
43679;DHT22;29279;50.858;4.392;2023-03-30T04:49:21;14.60;99.90
43679;DHT22;29279;50.858;4.392;2023-03-30T04:51:47;14.50;99.90
43679;DHT22;29279;50.858;4.392;2023-03-30T04:54:13;14.40;99.90
43679;DHT22;29279;50.858;4.392;2023-03-30T04:56:39;14.40;99.90
43679;DHT22;29279;50.858;4.392;2023-03-30T04:59:05;14.30;99.90
43679;DHT22;29279;50.858;4.392;2023-03-30T05:01:30;14.20;99.90
43679;DHT22;29279;50.858;4.392;2023-03-30T05:03:57;14.10;99.90
43679;DHT22;29279;50.858;4.392;2023-03-30T05:06:23;14.20;99.90
43679;DHT22;29279;50.858;4.392;2023-03-30T05:08:50;14.20;99.90
43679;DHT22;29279;50.858;4.392;2023-03-30T05:11:15;14.30;99.90
43679;DHT22;29279;50.858;4.392;2023-03-30T05:13:44;14.20;99.90
43679;DHT22;29279;50.858;4.392;2023-03-30T05:16:10;14.10;99.90
43679;DHT22;29279;50.858;4.392;2023-03-30T05:18:36;14.00;99.90
43679;DHT22;29279;50.858;4.392;2023-03-30T05:21:04;14.00;99.90
43679;DHT22;29279;50.858;4.392;2023-03-30T05:23:30;14.00;99.90
43679;DHT22;29279;50.858;4.392;2023-03-30T05:25:56;13.90;99.90
43679;DHT22;29279;50.858;4.392;2023-03-30T05:28:22;13.90;99.90
43679;DHT22;29279;50.858;4.392;2023-03-30T05:30:52;13.90;99.90
43679;DHT22;29279;50.858;4.392;2023-03-30T05:33:19;13.80;99.90
43679;DHT22;29279;50.858;4.392;2023-03-30T05:35:46;13.80;99.90
43679;DHT22;29279;50.858;4.392;2023-03-30T05:38:11;13.90;99.90
43679;DHT22;29279;50.858;4.392;2023-03-30T05:40:37;13.80;99.90
43679;DHT22;29279;50.858;4.392;2023-03-30T05:43:03;13.80;99.90
43679;DHT22;29279;50.858;4.392;2023-03-30T05:45:28;13.70;99.90
43679;DHT22;29279;50.858;4.392;2023-03-30T05:47:54;13.60;99.90
43679;DHT22;29279;50.858;4.392;2023-03-30T05:50:20;13.60;99.90
43679;DHT22;29279;50.858;4.392;2023-03-30T05:52:46;13.50;99.90
43679;DHT22;29279;50.858;4.392;2023-03-30T05:55:12;13.40;99.90
43679;DHT22;29279;50.858;4.392;2023-03-30T05:57:38;13.40;99.90
43679;DHT22;29279;50.858;4.392;2023-03-30T06:00:04;13.40;99.90
43679;DHT22;29279;50.858;4.392;2023-03-30T06:02:34;13.40;99.90
43679;DHT22;29279;50.858;4.392;2023-03-30T06:05:00;13.40;99.90
43679;DHT22;29279;50.858;4.392;2023-03-30T06:07:26;13.30;99.90
43679;DHT22;29279;50.858;4.392;2023-03-30T06:09:52;13.40;99.90
43679;DHT22;29279;50.858;4.392;2023-03-30T06:12:19;13.50;99.90
43679;DHT22;29279;50.858;4.392;2023-03-30T06:14:44;13.50;99.90
43679;DHT22;29279;50.858;4.392;2023-03-30T06:17:10;13.60;99.90
43679;DHT22;29279;50.858;4.392;2023-03-30T06:19:40;13.60;99.90
43679;DHT22;29279;50.858;4.392;2023-03-30T06:22:06;13.60;99.90
43679;DHT22;29279;50.858;4.392;2023-03-30T06:24:32;13.50;99.90
43679;DHT22;29279;50.858;4.392;2023-03-30T06:27:01;13.40;99.90
43679;DHT22;29279;50.858;4.392;2023-03-30T06:29:28;13.50;99.90
43679;DHT22;29279;50.858;4.392;2023-03-30T06:31:54;13.40;99.90
43679;DHT22;29279;50.858;4.392;2023-03-30T06:34:19;13.40;99.90
43679;DHT22;29279;50.858;4.392;2023-03-30T06:36:46;13.40;99.90
43679;DHT22;29279;50.858;4.392;2023-03-30T06:39:12;13.40;99.90
43679;DHT22;29279;50.858;4.392;2023-03-30T06:41:38;13.30;99.90
43679;DHT22;29279;50.858;4.392;2023-03-30T06:44:03;13.30;99.90
43679;DHT22;29279;50.858;4.392;2023-03-30T06:46:29;13.20;99.90
43679;DHT22;29279;50.858;4.392;2023-03-30T06:48:55;13.30;99.90
43679;DHT22;29279;50.858;4.392;2023-03-30T06:51:21;13.40;99.90
43679;DHT22;29279;50.858;4.392;2023-03-30T06:53:46;13.40;99.90
43679;DHT22;29279;50.858;4.392;2023-03-30T06:56:12;13.30;99.90
43679;DHT22;29279;50.858;4.392;2023-03-30T06:58:38;13.30;99.90
43679;DHT22;29279;50.858;4.392;2023-03-30T07:01:09;13.20;99.90
43679;DHT22;29279;50.858;4.392;2023-03-30T07:03:34;13.20;99.90
43679;DHT22;29279;50.858;4.392;2023-03-30T07:06:00;13.30;99.90
43679;DHT22;29279;50.858;4.392;2023-03-30T07:08:26;13.30;99.90
43679;DHT22;29279;50.858;4.392;2023-03-30T07:10:51;13.30;99.90
43679;DHT22;29279;50.858;4.392;2023-03-30T07:13:17;13.30;99.90
43679;DHT22;29279;50.858;4.392;2023-03-30T07:15:44;13.20;99.90
43679;DHT22;29279;50.858;4.392;2023-03-30T07:18:11;13.10;99.90
43679;DHT22;29279;50.858;4.392;2023-03-30T07:20:37;13.20;99.90
43679;DHT22;29279;50.858;4.392;2023-03-30T07:23:03;13.30;99.90
43679;DHT22;29279;50.858;4.392;2023-03-30T07:25:32;13.40;99.90
43679;DHT22;29279;50.858;4.392;2023-03-30T07:27:57;13.50;99.90
43679;DHT22;29279;50.858;4.392;2023-03-30T07:30:23;13.60;99.90
43679;DHT22;29279;50.858;4.392;2023-03-30T07:32:49;13.80;99.90
43679;DHT22;29279;50.858;4.392;2023-03-30T07:35:15;13.90;99.90
43679;DHT22;29279;50.858;4.392;2023-03-30T07:37:41;13.90;99.90
43679;DHT22;29279;50.858;4.392;2023-03-30T07:40:08;13.90;99.90
43679;DHT22;29279;50.858;4.392;2023-03-30T07:42:34;14.00;99.90
43679;DHT22;29279;50.858;4.392;2023-03-30T07:45:00;14.00;99.90
43679;DHT22;29279;50.858;4.392;2023-03-30T07:47:26;14.00;99.90
43679;DHT22;29279;50.858;4.392;2023-03-30T07:49:51;14.00;99.90
43679;DHT22;29279;50.858;4.392;2023-03-30T07:52:17;14.00;99.90
43679;DHT22;29279;50.858;4.392;2023-03-30T07:54:43;13.90;99.90
43679;DHT22;29279;50.858;4.392;2023-03-30T07:57:10;13.80;99.90
43679;DHT22;29279;50.858;4.392;2023-03-30T07:59:38;13.60;99.90
43679;DHT22;29279;50.858;4.392;2023-03-30T08:02:05;13.50;99.90
43679;DHT22;29279;50.858;4.392;2023-03-30T08:04:31;13.50;99.90
43679;DHT22;29279;50.858;4.392;2023-03-30T08:06:57;13.40;99.90
43679;DHT22;29279;50.858;4.392;2023-03-30T08:09:23;13.40;99.90
43679;DHT22;29279;50.858;4.392;2023-03-30T08:11:49;13.40;99.90
43679;DHT22;29279;50.858;4.392;2023-03-30T08:14:15;13.40;99.90
43679;DHT22;29279;50.858;4.392;2023-03-30T08:16:40;13.50;99.90
43679;DHT22;29279;50.858;4.392;2023-03-30T08:19:06;13.40;99.90
43679;DHT22;29279;50.858;4.392;2023-03-30T08:21:32;13.40;99.90
43679;DHT22;29279;50.858;4.392;2023-03-30T08:23:58;13.30;99.90
43679;DHT22;29279;50.858;4.392;2023-03-30T08:26:24;13.40;99.90
43679;DHT22;29279;50.858;4.392;2023-03-30T08:28:51;13.30;99.90
43679;DHT22;29279;50.858;4.392;2023-03-30T08:31:17;13.30;99.90
43679;DHT22;29279;50.858;4.392;2023-03-30T08:33:47;13.50;99.90
43679;DHT22;29279;50.858;4.392;2023-03-30T08:36:12;13.60;99.90
43679;DHT22;29279;50.858;4.392;2023-03-30T08:38:39;13.50;99.90
43679;DHT22;29279;50.858;4.392;2023-03-30T08:43:52;13.50;99.90
43679;DHT22;29279;50.858;4.392;2023-03-30T08:46:22;13.60;99.90
43679;DHT22;29279;50.858;4.392;2023-03-30T08:48:48;13.80;99.90
43679;DHT22;29279;50.858;4.392;2023-03-30T08:51:27;14.10;99.90
43679;DHT22;29279;50.858;4.392;2023-03-30T08:53:58;14.30;99.90
43679;DHT22;29279;50.858;4.392;2023-03-30T08:56:33;14.70;99.90
43679;DHT22;29279;50.858;4.392;2023-03-30T08:59:27;15.00;99.90
43679;DHT22;29279;50.858;4.392;2023-03-30T09:02:02;15.40;99.90
43679;DHT22;29279;50.858;4.392;2023-03-30T09:07:13;16.00;99.90
43679;DHT22;29279;50.858;4.392;2023-03-30T09:09:43;16.10;99.90
43679;DHT22;29279;50.858;4.392;2023-03-30T09:14:42;15.70;99.90
43679;DHT22;29279;50.858;4.392;2023-03-30T09:17:19;15.40;99.90
43679;DHT22;29279;50.858;4.392;2023-03-30T09:22:15;15.10;99.90
43679;DHT22;29279;50.858;4.392;2023-03-30T09:24:42;14.90;99.90
43679;DHT22;29279;50.858;4.392;2023-03-30T09:27:10;14.90;99.90
43679;DHT22;29279;50.858;4.392;2023-03-30T09:29:51;14.70;99.90
43679;DHT22;29279;50.858;4.392;2023-03-30T09:32:23;13.80;99.90
43679;DHT22;29279;50.858;4.392;2023-03-30T09:34:59;13.30;99.90
43679;DHT22;29279;50.858;4.392;2023-03-30T09:37:28;13.40;99.90
43679;DHT22;29279;50.858;4.392;2023-03-30T09:39:54;13.40;99.90
43679;DHT22;29279;50.858;4.392;2023-03-30T09:47:34;13.20;99.90
43679;DHT22;29279;50.858;4.392;2023-03-30T09:52:32;13.40;99.90
43679;DHT22;29279;50.858;4.392;2023-03-30T09:57:46;13.20;99.90
43679;DHT22;29279;50.858;4.392;2023-03-30T10:00:27;13.20;99.90
43679;DHT22;29279;50.858;4.392;2023-03-30T10:02:59;13.10;99.90
43679;DHT22;29279;50.858;4.392;2023-03-30T10:05:26;13.00;99.90
43679;DHT22;29279;50.858;4.392;2023-03-30T10:07:57;12.90;99.90
43679;DHT22;29279;50.858;4.392;2023-03-30T10:10:31;12.70;99.90
43679;DHT22;29279;50.858;4.392;2023-03-30T10:13:07;12.70;99.90
43679;DHT22;29279;50.858;4.392;2023-03-30T10:15:37;12.60;99.90
43679;DHT22;29279;50.858;4.392;2023-03-30T10:18:22;12.60;99.90
43679;DHT22;29279;50.858;4.392;2023-03-30T10:20:52;12.50;99.90
43679;DHT22;29279;50.858;4.392;2023-03-30T10:23:20;12.50;99.90
43679;DHT22;29279;50.858;4.392;2023-03-30T10:25:46;12.60;99.90
43679;DHT22;29279;50.858;4.392;2023-03-30T10:28:32;12.90;99.90
43679;DHT22;29279;50.858;4.392;2023-03-30T10:31:03;14.20;99.90
43679;DHT22;29279;50.858;4.392;2023-03-30T10:33:30;15.90;99.90
43679;DHT22;29279;50.858;4.392;2023-03-30T10:35:59;16.50;99.90
43679;DHT22;29279;50.858;4.392;2023-03-30T10:38:30;17.60;99.90
43679;DHT22;29279;50.858;4.392;2023-03-30T10:41:11;18.10;99.90
43679;DHT22;29279;50.858;4.392;2023-03-30T10:43:37;18.30;99.90
43679;DHT22;29279;50.858;4.392;2023-03-30T10:46:13;19.40;99.90
43679;DHT22;29279;50.858;4.392;2023-03-30T10:54:36;17.00;99.90
43679;DHT22;29279;50.858;4.392;2023-03-30T10:57:07;15.80;99.90
43679;DHT22;29279;50.858;4.392;2023-03-30T10:59:38;15.50;99.90
43679;DHT22;29279;50.858;4.392;2023-03-30T11:04:43;16.10;99.90
43679;DHT22;29279;50.858;4.392;2023-03-30T11:07:40;16.60;99.90
43679;DHT22;29279;50.858;4.392;2023-03-30T11:10:21;16.20;99.90
43679;DHT22;29279;50.858;4.392;2023-03-30T11:13:14;17.60;99.90
43679;DHT22;29279;50.858;4.392;2023-03-30T11:15:46;19.10;99.90
43679;DHT22;29279;50.858;4.392;2023-03-30T11:18:18;18.60;99.90
43679;DHT22;29279;50.858;4.392;2023-03-30T11:21:16;17.60;99.90
43679;DHT22;29279;50.858;4.392;2023-03-30T11:23:53;16.80;99.90
43679;DHT22;29279;50.858;4.392;2023-03-30T11:28:59;19.40;99.90
43679;DHT22;29279;50.858;4.392;2023-03-30T11:34:11;21.10;99.90
43679;DHT22;29279;50.858;4.392;2023-03-30T11:39:36;21.80;99.90
43679;DHT22;29279;50.858;4.392;2023-03-30T11:44:37;22.30;99.90
43679;DHT22;29279;50.858;4.392;2023-03-30T11:47:10;21.50;99.90
43679;DHT22;29279;50.858;4.392;2023-03-30T11:50:11;20.40;99.90
43679;DHT22;29279;50.858;4.392;2023-03-30T11:58:46;21.70;99.90
43679;DHT22;29279;50.858;4.392;2023-03-30T12:04:08;22.40;99.90
43679;DHT22;29279;50.858;4.392;2023-03-30T12:06:40;22.10;98.10
43679;DHT22;29279;50.858;4.392;2023-03-30T12:09:26;21.60;99.00
43679;DHT22;29279;50.858;4.392;2023-03-30T12:12:14;21.20;99.00
43679;DHT22;29279;50.858;4.392;2023-03-30T12:25:32;20.40;97.80
43679;DHT22;29279;50.858;4.392;2023-03-30T12:28:13;19.20;99.40
43679;DHT22;29279;50.858;4.392;2023-03-30T12:33:35;18.40;99.90
43679;DHT22;29279;50.858;4.392;2023-03-30T12:36:03;18.30;99.90
43679;DHT22;29279;50.858;4.392;2023-03-30T12:38:48;18.00;99.90
43679;DHT22;29279;50.858;4.392;2023-03-30T12:41:15;18.20;99.90
43679;DHT22;29279;50.858;4.392;2023-03-30T12:46:42;19.50;99.90
43679;DHT22;29279;50.858;4.392;2023-03-30T12:52:13;19.60;98.80
43679;DHT22;29279;50.858;4.392;2023-03-30T12:57:37;18.80;99.40
43679;DHT22;29279;50.858;4.392;2023-03-30T13:05:40;18.00;99.90
43679;DHT22;29279;50.858;4.392;2023-03-30T13:08:25;17.70;99.90
43679;DHT22;29279;50.858;4.392;2023-03-30T13:11:10;17.60;99.90
43679;DHT22;29279;50.858;4.392;2023-03-30T13:13:47;17.40;99.90
43679;DHT22;29279;50.858;4.392;2023-03-30T13:16:13;17.40;99.90
43679;DHT22;29279;50.858;4.392;2023-03-30T13:18:52;17.60;99.90
43679;DHT22;29279;50.858;4.392;2023-03-30T13:21:23;17.30;99.90
43679;DHT22;29279;50.858;4.392;2023-03-30T13:24:24;17.00;99.90
43679;DHT22;29279;50.858;4.392;2023-03-30T13:26:49;16.80;99.90
43679;DHT22;29279;50.858;4.392;2023-03-30T13:29:15;17.60;99.90
43679;DHT22;29279;50.858;4.392;2023-03-30T13:51:35;16.20;99.90
43679;DHT22;29279;50.858;4.392;2023-03-30T13:54:21;16.00;99.90
43679;DHT22;29279;50.858;4.392;2023-03-30T13:56:56;15.80;99.90
43679;DHT22;29279;50.858;4.392;2023-03-30T13:59:27;15.90;99.90
43679;DHT22;29279;50.858;4.392;2023-03-30T14:01:56;16.30;99.90
43679;DHT22;29279;50.858;4.392;2023-03-30T14:04:28;17.20;99.90
43679;DHT22;29279;50.858;4.392;2023-03-30T14:06:54;17.70;99.90
43679;DHT22;29279;50.858;4.392;2023-03-30T14:09:25;18.30;99.90
43679;DHT22;29279;50.858;4.392;2023-03-30T14:11:54;18.00;99.90
43679;DHT22;29279;50.858;4.392;2023-03-30T14:17:11;18.80;99.90
43679;DHT22;29279;50.858;4.392;2023-03-30T14:19:42;18.50;99.90
43679;DHT22;29279;50.858;4.392;2023-03-30T14:22:16;17.70;99.90
43679;DHT22;29279;50.858;4.392;2023-03-30T14:24:56;17.20;99.90
43679;DHT22;29279;50.858;4.392;2023-03-30T14:27:22;16.80;99.90
43679;DHT22;29279;50.858;4.392;2023-03-30T14:29:50;16.20;99.90
43679;DHT22;29279;50.858;4.392;2023-03-30T14:32:18;15.90;99.90
43679;DHT22;29279;50.858;4.392;2023-03-30T14:34:51;15.80;99.90
43679;DHT22;29279;50.858;4.392;2023-03-30T14:37:17;14.90;99.90
43679;DHT22;29279;50.858;4.392;2023-03-30T14:39:50;14.40;99.90
43679;DHT22;29279;50.858;4.392;2023-03-30T14:42:17;14.20;99.90
43679;DHT22;29279;50.858;4.392;2023-03-30T14:44:45;14.00;99.90
43679;DHT22;29279;50.858;4.392;2023-03-30T14:47:17;13.90;99.90
43679;DHT22;29279;50.858;4.392;2023-03-30T14:49:43;13.80;99.90
43679;DHT22;29279;50.858;4.392;2023-03-30T14:52:19;13.60;99.90
43679;DHT22;29279;50.858;4.392;2023-03-30T14:54:48;13.40;99.90
43679;DHT22;29279;50.858;4.392;2023-03-30T14:57:20;13.30;99.90
43679;DHT22;29279;50.858;4.392;2023-03-30T14:59:53;13.20;99.90
43679;DHT22;29279;50.858;4.392;2023-03-30T15:02:25;13.20;99.90
43679;DHT22;29279;50.858;4.392;2023-03-30T15:04:51;13.20;99.90
43679;DHT22;29279;50.858;4.392;2023-03-30T15:07:18;13.20;99.90
43679;DHT22;29279;50.858;4.392;2023-03-30T15:09:53;13.20;99.90
43679;DHT22;29279;50.858;4.392;2023-03-30T15:12:25;13.30;99.90
43679;DHT22;29279;50.858;4.392;2023-03-30T15:14:55;13.80;99.90
43679;DHT22;29279;50.858;4.392;2023-03-30T15:17:24;14.40;99.90
43679;DHT22;29279;50.858;4.392;2023-03-30T15:19:52;14.50;99.90
43679;DHT22;29279;50.858;4.392;2023-03-30T15:22:28;14.40;99.90
43679;DHT22;29279;50.858;4.392;2023-03-30T15:24:58;14.40;99.90
43679;DHT22;29279;50.858;4.392;2023-03-30T15:27:25;14.20;99.90
43679;DHT22;29279;50.858;4.392;2023-03-30T15:29:53;14.30;99.90
43679;DHT22;29279;50.858;4.392;2023-03-30T15:32:25;14.50;99.90
43679;DHT22;29279;50.858;4.392;2023-03-30T15:37:38;14.50;99.90
43679;DHT22;29279;50.858;4.392;2023-03-30T15:40:39;14.50;99.90
43679;DHT22;29279;50.858;4.392;2023-03-30T15:43:22;14.60;99.90
43679;DHT22;29279;50.858;4.392;2023-03-30T15:45:59;14.60;99.90
43679;DHT22;29279;50.858;4.392;2023-03-30T15:48:38;14.60;99.90
43679;DHT22;29279;50.858;4.392;2023-03-30T15:51:10;14.70;99.90
43679;DHT22;29279;50.858;4.392;2023-03-30T15:53:49;14.70;99.90
43679;DHT22;29279;50.858;4.392;2023-03-30T15:59:18;14.70;99.90
43679;DHT22;29279;50.858;4.392;2023-03-30T16:01:55;14.70;99.90
43679;DHT22;29279;50.858;4.392;2023-03-30T16:04:30;14.80;99.90
43679;DHT22;29279;50.858;4.392;2023-03-30T16:06:57;14.70;99.90
43679;DHT22;29279;50.858;4.392;2023-03-30T16:09:24;14.60;99.90
43679;DHT22;29279;50.858;4.392;2023-03-30T16:11:49;14.50;99.90
43679;DHT22;29279;50.858;4.392;2023-03-30T16:14:19;14.40;99.90
43679;DHT22;29279;50.858;4.392;2023-03-30T16:16:46;14.30;99.90
43679;DHT22;29279;50.858;4.392;2023-03-30T16:19:14;14.30;99.90
43679;DHT22;29279;50.858;4.392;2023-03-30T16:21:41;14.40;99.90
43679;DHT22;29279;50.858;4.392;2023-03-30T16:24:07;14.50;99.90
43679;DHT22;29279;50.858;4.392;2023-03-30T16:26:33;14.60;99.90
43679;DHT22;29279;50.858;4.392;2023-03-30T16:28:59;14.60;99.90
43679;DHT22;29279;50.858;4.392;2023-03-30T16:31:25;14.60;99.90
43679;DHT22;29279;50.858;4.392;2023-03-30T16:33:50;14.50;99.90
43679;DHT22;29279;50.858;4.392;2023-03-30T16:36:19;14.50;99.90
43679;DHT22;29279;50.858;4.392;2023-03-30T16:38:46;14.50;99.90
43679;DHT22;29279;50.858;4.392;2023-03-30T16:41:18;14.50;99.90
43679;DHT22;29279;50.858;4.392;2023-03-30T16:43:44;14.50;99.90
43679;DHT22;29279;50.858;4.392;2023-03-30T16:46:15;14.50;99.90
43679;DHT22;29279;50.858;4.392;2023-03-30T16:48:42;14.60;99.90
43679;DHT22;29279;50.858;4.392;2023-03-30T16:51:09;14.60;99.90
43679;DHT22;29279;50.858;4.392;2023-03-30T16:53:35;14.60;99.90
43679;DHT22;29279;50.858;4.392;2023-03-30T16:56:01;14.60;99.90
43679;DHT22;29279;50.858;4.392;2023-03-30T16:58:26;14.60;99.90
43679;DHT22;29279;50.858;4.392;2023-03-30T17:00:53;14.50;99.90
43679;DHT22;29279;50.858;4.392;2023-03-30T17:03:20;14.40;99.90
43679;DHT22;29279;50.858;4.392;2023-03-30T17:05:46;14.50;99.90
43679;DHT22;29279;50.858;4.392;2023-03-30T17:08:19;14.50;99.90
43679;DHT22;29279;50.858;4.392;2023-03-30T17:10:46;14.50;99.90
43679;DHT22;29279;50.858;4.392;2023-03-30T17:13:15;14.60;99.90
43679;DHT22;29279;50.858;4.392;2023-03-30T17:15:41;14.50;99.90
43679;DHT22;29279;50.858;4.392;2023-03-30T17:18:15;14.50;99.90
43679;DHT22;29279;50.858;4.392;2023-03-30T17:20:48;14.50;99.90
43679;DHT22;29279;50.858;4.392;2023-03-30T17:23:15;14.60;99.90
43679;DHT22;29279;50.858;4.392;2023-03-30T17:25:42;14.70;99.90
43679;DHT22;29279;50.858;4.392;2023-03-30T17:28:14;14.70;99.90
43679;DHT22;29279;50.858;4.392;2023-03-30T17:30:40;14.80;99.90
43679;DHT22;29279;50.858;4.392;2023-03-30T17:33:07;14.80;99.90
43679;DHT22;29279;50.858;4.392;2023-03-30T17:35:35;14.60;99.90
43679;DHT22;29279;50.858;4.392;2023-03-30T17:38:02;14.50;99.90
43679;DHT22;29279;50.858;4.392;2023-03-30T17:40:30;14.30;99.90
43679;DHT22;29279;50.858;4.392;2023-03-30T17:42:56;14.20;99.90
43679;DHT22;29279;50.858;4.392;2023-03-30T17:45:25;14.00;99.90
43679;DHT22;29279;50.858;4.392;2023-03-30T17:47:51;13.90;99.90
43679;DHT22;29279;50.858;4.392;2023-03-30T17:50:21;13.80;99.90
43679;DHT22;29279;50.858;4.392;2023-03-30T17:52:48;14.10;99.90
43679;DHT22;29279;50.858;4.392;2023-03-30T17:55:15;14.00;99.90
43679;DHT22;29279;50.858;4.392;2023-03-30T17:57:41;14.00;99.90
43679;DHT22;29279;50.858;4.392;2023-03-30T18:00:23;14.00;99.90
43679;DHT22;29279;50.858;4.392;2023-03-30T18:02:50;14.10;99.90
43679;DHT22;29279;50.858;4.392;2023-03-30T18:05:17;14.00;99.90
43679;DHT22;29279;50.858;4.392;2023-03-30T18:07:43;13.90;99.90
43679;DHT22;29279;50.858;4.392;2023-03-30T18:12:40;13.60;99.90
43679;DHT22;29279;50.858;4.392;2023-03-30T18:15:08;13.50;99.90
43679;DHT22;29279;50.858;4.392;2023-03-30T18:17:33;13.40;99.90